Time;durP1;ratioP1;P1;durP2;ratioP2;P2;SDS_P1;SDS_P2;PMS_P1;PMS_P2;Temp;Humidity;BMP_temperature;BMP_pressure;BME280_temperature;BME280_humidity;BME280_pressure;Samples;Min_cycle;Max_cycle;Signal;HPM_P1;HPM_P2
2022/12/23 00:00:39;;;;;;;58.20;29.85;;;9.50;99.90;;;;;;5018078;28;88876;-75
2022/12/23 00:03:07;;;;;;;61.83;28.30;;;9.50;99.90;;;;;;5018537;28;89649;-75
2022/12/23 00:05:36;;;;;;;58.00;28.45;;;9.50;99.90;;;;;;5017876;28;91605;-75
2022/12/23 00:08:05;;;;;;;64.43;29.95;;;9.50;99.90;;;;;;5019420;28;89092;-75
2022/12/23 00:10:34;;;;;;;64.80;28.90;;;9.50;99.90;;;;;;5019614;28;88517;-75
2022/12/23 00:15:46;;;;;;;58.65;27.65;;;9.50;99.90;;;;;;5017859;28;91685;-75
2022/12/23 00:18:13;;;;;;;60.42;27.50;;;9.50;99.90;;;;;;5018335;28;88541;-75
2022/12/23 00:20:40;;;;;;;59.40;27.58;;;9.50;99.90;;;;;;5017251;28;92131;-74
2022/12/23 00:23:08;;;;;;;64.90;29.33;;;9.40;99.90;;;;;;5017876;28;92095;-75
2022/12/23 00:25:40;;;;;;;58.88;27.67;;;9.40;99.90;;;;;;5017983;28;91886;-75
2022/12/23 00:28:13;;;;;;;55.07;27.97;;;9.50;99.90;;;;;;5019364;28;88401;-75
2022/12/23 00:30:48;;;;;;;63.13;27.98;;;9.50;99.90;;;;;;5017100;28;91982;-75
2022/12/23 00:33:17;;;;;;;71.65;28.65;;;9.50;99.90;;;;;;5017854;28;89702;-74
2022/12/23 00:35:45;;;;;;;58.15;27.58;;;9.50;99.90;;;;;;5017628;28;91858;-75
2022/12/23 00:38:12;;;;;;;57.22;26.75;;;9.50;99.90;;;;;;5001098;28;93182;-74
2022/12/23 00:43:27;;;;;;;58.05;28.05;;;9.50;99.90;;;;;;5017602;28;92107;-74
2022/12/23 00:45:54;;;;;;;59.50;25.98;;;9.50;99.90;;;;;;5018889;28;89578;-74
2022/12/23 00:51:06;;;;;;;53.40;26.05;;;9.60;99.90;;;;;;5018893;28;88819;-74
2022/12/23 00:53:33;;;;;;;59.53;25.73;;;9.60;99.90;;;;;;5017349;28;92347;-74
2022/12/23 00:56:00;;;;;;;50.70;25.77;;;9.60;99.90;;;;;;4983956;28;91623;-74
2022/12/23 00:58:27;;;;;;;50.33;25.77;;;9.60;99.90;;;;;;5017373;28;88477;-75
2022/12/23 01:06:26;;;;;;;54.05;25.50;;;9.60;99.90;;;;;;5017603;28;89025;-74
2022/12/23 01:08:52;;;;;;;46.15;25.23;;;9.50;99.90;;;;;;5017120;28;88616;-74
2022/12/23 01:11:20;;;;;;;110.72;30.15;;;9.50;99.90;;;;;;5000392;28;92305;-74
2022/12/23 01:13:47;;;;;;;118.18;30.90;;;9.50;99.90;;;;;;5000139;28;91895;-74
2022/12/23 01:16:14;;;;;;;66.18;28.42;;;9.50;99.90;;;;;;5000806;28;89275;-74
2022/12/23 01:18:44;;;;;;;114.35;30.85;;;9.50;99.90;;;;;;5017123;28;88636;-74
2022/12/23 01:21:11;;;;;;;70.25;27.63;;;9.50;99.90;;;;;;5018178;28;89181;-75
2022/12/23 01:23:38;;;;;;;52.58;25.92;;;9.50;99.90;;;;;;5017327;28;89616;-76
2022/12/23 01:26:07;;;;;;;47.33;25.67;;;9.50;99.90;;;;;;5016630;28;91545;-75
2022/12/23 01:28:34;;;;;;;59.35;27.00;;;9.60;99.90;;;;;;5017144;28;89741;-75
2022/12/23 01:31:04;;;;;;;57.58;27.30;;;9.50;99.90;;;;;;5016504;28;95089;-75
2022/12/23 01:33:32;;;;;;;57.97;26.88;;;9.50;99.90;;;;;;5016840;28;90588;-74
2022/12/23 01:36:05;;;;;;;52.58;26.67;;;9.50;99.90;;;;;;5016615;28;89507;-75
2022/12/23 01:38:33;;;;;;;49.80;27.60;;;9.60;99.90;;;;;;5018356;28;88469;-75
2022/12/23 01:41:00;;;;;;;54.35;26.25;;;9.50;99.90;;;;;;5016264;28;88851;-75
2022/12/23 01:43:47;;;;;;;51.97;27.23;;;9.50;99.90;;;;;;5015941;28;89575;-75
2022/12/23 01:46:15;;;;;;;48.13;25.88;;;9.60;99.90;;;;;;5016695;28;90253;-75
2022/12/23 01:48:50;;;;;;;62.33;27.98;;;9.50;99.90;;;;;;5016329;28;91088;-75
2022/12/23 01:51:24;;;;;;;63.05;28.40;;;9.50;99.90;;;;;;5018320;28;88897;-75
2022/12/23 01:53:53;;;;;;;;;;;9.50;99.90;;;;;;5018615;28;89586;-75
2022/12/23 01:56:40;;;;;;;54.67;25.27;;;9.40;99.90;;;;;;5019840;28;88834;-75
2022/12/23 02:03:40;;;;;;;62.75;27.65;;;9.50;99.90;;;;;;5016219;28;88467;-74
2022/12/23 02:04:45;;;;;;;57.13;26.05;;;9.50;99.90;;;;;;5016835;28;89953;-75
2022/12/23 02:09:58;;;;;;;48.13;25.33;;;9.60;99.90;;;;;;5017715;28;88426;-75
2022/12/23 02:12:37;;;;;;;58.78;26.85;;;9.60;99.90;;;;;;5016333;28;88675;-75
2022/12/23 02:17:59;;;;;;;;;;;9.60;99.90;;;;;;5017958;28;89084;-75
2022/12/23 02:20:47;;;;;;;59.47;26.48;;;9.50;99.90;;;;;;5018649;28;91327;-75
2022/12/23 02:23:20;;;;;;;80.15;29.15;;;9.50;99.90;;;;;;5017457;28;88715;-75
2022/12/23 02:26:25;;;;;;;64.33;27.80;;;9.50;99.90;;;;;;5017103;28;89319;-75
2022/12/23 02:29:22;;;;;;;66.57;27.80;;;9.50;99.90;;;;;;4986498;28;89230;-75
2022/12/23 02:31:49;;;;;;;68.28;28.42;;;9.60;99.90;;;;;;4976492;28;88663;-75
2022/12/23 02:34:20;;;;;;;60.05;27.40;;;9.50;99.90;;;;;;5015613;28;89346;-75
2022/12/23 02:37:03;;;;;;;63.28;28.10;;;9.60;99.90;;;;;;5015711;28;91995;-75
2022/12/23 02:39:58;;;;;;;66.80;28.63;;;9.60;99.90;;;;;;5016116;28;89029;-75
2022/12/23 02:42:36;;;;;;;79.57;29.40;;;9.60;99.90;;;;;;5016940;28;88677;-75
2022/12/23 02:45:09;;;;;;;76.38;29.45;;;9.60;99.90;;;;;;5016983;28;89934;-75
2022/12/23 02:47:45;;;;;;;60.20;27.38;;;9.60;99.90;;;;;;5015749;28;92668;-75
2022/12/23 02:50:20;;;;;;;63.50;27.85;;;9.60;99.90;;;;;;5016959;28;89029;-74
2022/12/23 02:52:50;;;;;;;52.60;25.90;;;9.60;99.90;;;;;;5015687;28;88429;-75
2022/12/23 02:55:26;;;;;;;56.22;26.75;;;9.60;99.90;;;;;;5015270;28;92001;-76
2022/12/23 02:57:56;;;;;;;59.58;27.75;;;9.60;99.90;;;;;;5015057;28;92135;-74
2022/12/23 03:00:23;;;;;;;62.88;28.52;;;9.50;99.90;;;;;;5015508;28;89084;-75
2022/12/23 03:02:50;;;;;;;60.10;29.67;;;9.50;99.90;;;;;;5016886;28;88481;-74
2022/12/23 03:05:26;;;;;;;63.53;28.02;;;9.50;99.90;;;;;;5015412;28;88772;-74
2022/12/23 03:08:01;;;;;;;55.33;26.50;;;9.50;99.90;;;;;;5015412;28;91742;-74
2022/12/23 03:10:50;;;;;;;64.80;28.83;;;9.40;99.90;;;;;;5015355;28;91749;-74
2022/12/23 03:13:29;;;;;;;67.30;29.00;;;9.40;99.90;;;;;;5015377;28;91124;-75
2022/12/23 03:16:31;;;;;;;82.43;30.60;;;9.30;99.90;;;;;;5015455;28;90382;-74
2022/12/23 03:19:03;;;;;;;77.75;31.05;;;9.30;99.90;;;;;;4999604;28;89526;-74
2022/12/23 03:21:38;;;;;;;84.72;33.88;;;9.30;99.90;;;;;;5015338;28;88923;-74
2022/12/23 03:24:10;;;;;;;76.50;31.00;;;9.30;99.90;;;;;;5016453;28;88454;-74
2022/12/23 03:26:43;;;;;;;69.35;27.80;;;9.30;99.90;;;;;;5015517;28;88641;-74
2022/12/23 03:29:17;;;;;;;63.47;26.77;;;9.30;99.90;;;;;;4998394;28;91785;-74
2022/12/23 03:31:45;;;;;;;65.45;28.30;;;9.30;99.90;;;;;;5015514;28;89016;-74
2022/12/23 03:34:17;;;;;;;64.03;27.88;;;9.20;99.90;;;;;;5015347;28;88559;-74
2022/12/23 03:36:51;;;;;;;62.88;26.42;;;9.30;99.90;;;;;;5016479;28;89325;-74
2022/12/23 03:39:19;;;;;;;;;;;9.30;99.90;;;;;;5015962;28;89349;-74
2022/12/23 03:41:54;;;;;;;63.65;26.63;;;9.10;99.90;;;;;;5017074;28;88727;-74
2022/12/23 03:44:38;;;;;;;59.35;26.55;;;9.10;99.90;;;;;;5015327;28;88663;-74
2022/12/23 03:47:17;;;;;;;76.07;28.45;;;9.10;99.90;;;;;;5014471;28;92123;-74
2022/12/23 03:49:52;;;;;;;70.80;26.27;;;9.10;99.90;;;;;;5014815;28;93507;-74
2022/12/23 03:52:26;;;;;;;69.13;28.88;;;9.10;99.90;;;;;;5015029;28;89479;-74
2022/12/23 03:54:56;;;;;;;70.80;26.95;;;9.10;99.90;;;;;;5014807;28;91156;-74
2022/12/23 03:57:36;;;;;;;73.85;27.45;;;9.10;99.90;;;;;;5007322;28;91964;-74
2022/12/23 04:00:05;;;;;;;78.60;28.60;;;9.10;99.90;;;;;;4976561;28;89228;-74
2022/12/23 04:02:40;;;;;;;89.30;28.83;;;9.10;99.90;;;;;;4975229;28;112968;-74
2022/12/23 04:05:30;;;;;;;87.40;29.45;;;9.10;99.90;;;;;;4977537;28;88434;-74
2022/12/23 04:08:03;;;;;;;99.22;29.23;;;9.20;99.90;;;;;;4962042;28;90527;-74
2022/12/23 04:10:31;;;;;;;77.20;28.33;;;9.20;99.90;;;;;;4978245;28;92173;-74
2022/12/23 04:12:58;;;;;;;80.28;28.85;;;9.20;99.90;;;;;;4961378;28;101787;-74
2022/12/23 04:15:26;;;;;;;86.55;27.73;;;9.20;99.90;;;;;;4962022;28;89023;-74
2022/12/23 04:17:56;;;;;;;93.07;29.45;;;9.20;99.90;;;;;;4979558;28;88856;-74
2022/12/23 04:20:24;;;;;;;82.72;29.40;;;9.30;99.90;;;;;;4977662;28;92010;-74
2022/12/23 04:22:51;;;;;;;82.10;28.90;;;9.30;99.90;;;;;;4978260;28;89041;-74
2022/12/23 04:25:18;;;;;;;90.53;31.63;;;9.30;99.90;;;;;;4979348;28;88504;-74
2022/12/23 04:27:45;;;;;;;85.47;28.25;;;9.30;99.90;;;;;;4978189;28;88873;-75
2022/12/23 04:30:12;;;;;;;80.32;28.70;;;9.30;99.90;;;;;;4978208;28;92331;-75
2022/12/23 04:32:41;;;;;;;80.85;27.83;;;9.30;99.90;;;;;;4979252;28;88956;-75
2022/12/23 04:35:08;;;;;;;72.90;27.25;;;9.40;99.90;;;;;;4961469;28;91039;-75
2022/12/23 04:37:35;;;;;;;83.72;28.00;;;9.40;99.90;;;;;;4978848;28;89939;-75
2022/12/23 04:40:04;;;;;;;73.88;27.45;;;9.40;99.90;;;;;;4979200;28;89378;-75
2022/12/23 04:42:30;;;;;;;76.22;26.05;;;9.40;99.90;;;;;;4978998;28;89040;-75
2022/12/23 04:44:58;;;;;;;75.05;26.08;;;9.30;99.90;;;;;;4977978;28;88552;-75
2022/12/23 04:47:25;;;;;;;72.13;25.58;;;9.30;99.90;;;;;;4977307;28;91486;-75
2022/12/23 04:49:52;;;;;;;75.43;25.85;;;9.30;99.90;;;;;;4994146;28;91822;-75
2022/12/23 04:52:19;;;;;;;71.13;25.33;;;9.20;99.90;;;;;;4978977;28;88997;-75
2022/12/23 04:54:46;;;;;;;79.10;26.20;;;9.30;99.90;;;;;;4978135;28;88927;-75
2022/12/23 04:57:14;;;;;;;135.32;30.60;;;9.30;99.90;;;;;;4983111;28;88714;-75
2022/12/23 04:59:41;;;;;;;67.45;25.02;;;9.30;99.90;;;;;;5017457;28;89690;-75
2022/12/23 05:02:08;;;;;;;81.57;26.15;;;9.30;99.90;;;;;;5018533;28;88864;-75
2022/12/23 05:04:35;;;;;;;76.05;25.75;;;9.30;99.90;;;;;;5017321;28;88503;-75
2022/12/23 05:07:02;;;;;;;79.72;26.15;;;9.20;99.90;;;;;;5017217;28;88672;-75
2022/12/23 05:09:29;;;;;;;81.65;25.73;;;9.20;99.90;;;;;;5018559;28;89447;-76
2022/12/23 05:11:56;;;;;;;75.50;25.08;;;9.20;99.90;;;;;;5018668;28;88538;-75
2022/12/23 05:14:23;;;;;;;74.20;24.77;;;9.20;99.90;;;;;;5000131;28;91013;-75
2022/12/23 05:16:50;;;;;;;79.82;26.02;;;9.20;99.90;;;;;;5017292;28;88948;-75
2022/12/23 05:19:17;;;;;;;69.22;24.55;;;9.10;99.90;;;;;;5000660;28;91936;-75
2022/12/23 05:21:44;;;;;;;82.03;24.92;;;9.10;99.90;;;;;;5017067;28;88865;-75
2022/12/23 05:24:14;;;;;;;77.95;24.90;;;9.10;99.90;;;;;;5018423;28;88527;-75
2022/12/23 05:26:41;;;;;;;80.55;25.55;;;9.10;99.90;;;;;;4999911;28;92449;-76
2022/12/23 05:29:14;;;;;;;77.30;24.13;;;9.00;99.90;;;;;;5001559;28;88553;-75
2022/12/23 05:31:41;;;;;;;71.20;23.85;;;9.10;99.90;;;;;;5016783;28;89508;-75
2022/12/23 05:34:08;;;;;;;86.93;24.27;;;9.00;99.90;;;;;;5000141;28;91081;-75
2022/12/23 05:36:35;;;;;;;68.35;23.02;;;9.10;99.90;;;;;;5018065;28;88658;-75
2022/12/23 05:39:02;;;;;;;67.75;22.35;;;9.10;99.90;;;;;;5016994;28;90182;-75
2022/12/23 05:41:29;;;;;;;70.10;23.00;;;9.10;99.90;;;;;;5016700;28;90417;-76
2022/12/23 05:43:56;;;;;;;64.75;23.17;;;9.10;99.90;;;;;;5016712;28;88791;-75
2022/12/23 05:46:23;;;;;;;83.30;22.83;;;9.10;99.90;;;;;;5016835;28;88775;-75
2022/12/23 05:48:53;;;;;;;54.80;20.23;;;9.10;99.90;;;;;;5016479;28;92087;-75
2022/12/23 05:51:20;;;;;;;70.50;21.27;;;9.10;99.90;;;;;;5017755;28;88880;-75
2022/12/23 05:53:47;;;;;;;81.70;21.65;;;9.00;99.90;;;;;;5016404;28;88495;-76
2022/12/23 05:56:14;;;;;;;70.03;21.95;;;9.00;99.90;;;;;;5017927;28;88699;-75
2022/12/23 05:58:41;;;;;;;69.22;20.83;;;9.00;99.90;;;;;;5015448;28;93045;-75
2022/12/23 06:01:08;;;;;;;67.80;21.02;;;9.00;99.90;;;;;;5016565;28;88893;-75
2022/12/23 06:03:35;;;;;;;74.50;21.58;;;9.00;99.90;;;;;;5016452;28;88542;-75
2022/12/23 06:06:02;;;;;;;84.30;21.35;;;9.00;99.90;;;;;;5016401;28;89577;-75
2022/12/23 06:08:29;;;;;;;65.97;22.23;;;9.00;99.90;;;;;;5017655;28;89462;-75
2022/12/23 06:10:58;;;;;;;79.72;21.35;;;9.00;99.90;;;;;;5016374;28;89388;-75
2022/12/23 06:13:25;;;;;;;85.75;22.73;;;9.00;99.90;;;;;;5017652;28;88585;-75
2022/12/23 06:15:52;;;;;;;95.97;23.45;;;9.00;99.90;;;;;;5015609;28;92935;-76
2022/12/23 06:18:19;;;;;;;88.72;24.60;;;9.00;99.90;;;;;;4999421;28;92383;-76
2022/12/23 06:20:47;;;;;;;92.10;24.63;;;9.00;99.90;;;;;;5017378;28;91824;-76
2022/12/23 06:23:14;;;;;;;107.95;25.90;;;9.00;99.90;;;;;;5017514;28;88528;-76
2022/12/23 06:25:41;;;;;;;84.78;23.77;;;8.90;99.90;;;;;;5017182;28;88836;-75
2022/12/23 06:28:08;;;;;;;60.45;21.30;;;8.90;99.90;;;;;;5015776;28;89598;-75
2022/12/23 06:30:37;;;;;;;80.05;23.85;;;8.90;99.90;;;;;;5016110;28;88860;-75
2022/12/23 06:33:05;;;;;;;82.15;23.73;;;8.90;99.90;;;;;;5017518;28;88470;-75
2022/12/23 06:35:32;;;;;;;79.38;22.02;;;8.90;99.90;;;;;;4999428;28;88854;-76
2022/12/23 06:37:59;;;;;;;87.18;23.40;;;8.90;99.90;;;;;;5016127;28;89397;-76
2022/12/23 06:40:27;;;;;;;71.10;21.17;;;8.90;99.90;;;;;;4998890;28;90578;-76
2022/12/23 06:42:55;;;;;;;74.75;20.98;;;8.90;99.90;;;;;;4999062;28;88624;-76
2022/12/23 06:45:22;;;;;;;60.22;19.77;;;9.00;99.90;;;;;;5015592;28;90572;-76
2022/12/23 06:47:49;;;;;;;72.60;19.00;;;8.90;99.90;;;;;;5016945;28;88392;-76
2022/12/23 06:50:16;;;;;;;115.57;23.15;;;9.00;99.90;;;;;;5015949;28;89049;-76
2022/12/23 06:52:43;;;;;;;85.93;21.85;;;9.00;99.90;;;;;;5016814;28;88539;-76
2022/12/23 06:55:11;;;;;;;76.50;21.58;;;9.00;99.90;;;;;;5017180;28;89158;-76
2022/12/23 06:57:38;;;;;;;98.15;23.48;;;9.00;99.90;;;;;;5015317;28;91971;-76
2022/12/23 07:00:07;;;;;;;111.53;21.83;;;9.00;99.90;;;;;;5017071;28;88436;-76
2022/12/23 07:02:34;;;;;;;53.63;18.80;;;9.00;99.90;;;;;;5017015;28;88997;-76
2022/12/23 07:05:01;;;;;;;52.78;17.70;;;9.00;99.90;;;;;;5015172;28;95717;-75
2022/12/23 07:07:31;;;;;;;66.88;19.10;;;9.00;99.90;;;;;;4998936;28;88377;-76
2022/12/23 07:09:58;;;;;;;74.15;20.02;;;9.00;99.90;;;;;;5016544;28;89056;-76
2022/12/23 07:12:25;;;;;;;61.50;20.67;;;9.00;99.90;;;;;;4998678;28;91164;-76
2022/12/23 07:14:52;;;;;;;55.58;18.45;;;9.00;99.90;;;;;;5015404;28;89230;-76
2022/12/23 07:17:19;;;;;;;62.13;20.27;;;9.00;99.90;;;;;;5015531;28;88510;-76
2022/12/23 07:19:46;;;;;;;67.63;19.58;;;9.10;99.90;;;;;;5015269;28;89248;-76
2022/12/23 07:22:13;;;;;;;61.92;19.52;;;9.10;99.90;;;;;;5015501;28;91173;-76
2022/12/23 07:24:40;;;;;;;63.08;19.27;;;9.10;99.90;;;;;;5016541;28;88583;-75
2022/12/23 07:27:07;;;;;;;60.47;19.67;;;9.10;99.90;;;;;;5015406;28;89239;-76
2022/12/23 07:29:34;;;;;;;56.38;17.88;;;9.10;99.90;;;;;;5015361;28;89132;-76
2022/12/23 07:32:02;;;;;;;56.95;19.48;;;9.10;99.90;;;;;;4997906;28;99939;-76
2022/12/23 07:34:29;;;;;;;54.92;18.05;;;9.10;99.90;;;;;;5016164;28;88871;-76
2022/12/23 07:36:55;;;;;;;80.28;19.98;;;9.10;99.90;;;;;;5015140;28;89525;-75
2022/12/23 07:39:22;;;;;;;53.15;18.20;;;9.10;99.90;;;;;;5015204;28;90545;-76
2022/12/23 07:41:49;;;;;;;66.75;19.17;;;9.10;99.90;;;;;;5018109;28;88555;-75
2022/12/23 07:44:35;;;;;;;47.50;17.08;;;9.10;99.90;;;;;;5020036;28;88934;-75
2022/12/23 07:47:02;;;;;;;47.78;18.52;;;9.10;99.90;;;;;;5019682;28;88513;-75
2022/12/23 07:49:29;;;;;;;66.60;18.20;;;9.10;99.90;;;;;;5018502;28;88996;-76
2022/12/23 07:51:56;;;;;;;56.75;18.70;;;9.10;99.90;;;;;;5001417;28;91050;-75
2022/12/23 07:54:23;;;;;;;54.30;18.33;;;9.10;99.90;;;;;;5019399;28;88783;-76
2022/12/23 07:56:50;;;;;;;70.97;19.25;;;9.10;99.90;;;;;;5019430;28;89599;-76
2022/12/23 07:59:17;;;;;;;63.92;18.00;;;9.10;99.90;;;;;;5019517;28;89062;-76
2022/12/23 08:01:45;;;;;;;47.55;16.27;;;9.10;99.90;;;;;;5019284;28;88782;-76
2022/12/23 08:04:12;;;;;;;53.45;17.30;;;9.10;99.90;;;;;;5018443;28;88715;-75
2022/12/23 08:06:40;;;;;;;44.97;17.48;;;9.10;99.90;;;;;;5018371;28;89303;-76
2022/12/23 08:09:08;;;;;;;50.17;17.08;;;9.10;99.90;;;;;;5001268;28;91628;-76
2022/12/23 08:11:35;;;;;;;46.80;16.40;;;9.10;99.90;;;;;;5019514;28;88506;-76
2022/12/23 08:14:02;;;;;;;40.42;15.13;;;9.10;99.90;;;;;;5019256;28;88950;-76
2022/12/23 08:16:29;;;;;;;53.90;16.52;;;9.10;99.90;;;;;;5019175;28;88425;-76
2022/12/23 08:18:56;;;;;;;51.70;16.45;;;9.10;99.90;;;;;;5017812;28;88771;-76
2022/12/23 08:21:23;;;;;;;37.70;15.50;;;9.10;99.90;;;;;;5018017;28;88500;-76
2022/12/23 08:23:51;;;;;;;48.25;16.10;;;9.10;99.90;;;;;;5017518;28;92276;-76
2022/12/23 08:26:22;;;;;;;54.00;16.17;;;9.10;99.90;;;;;;5019180;28;89762;-76
2022/12/23 08:28:52;;;;;;;50.67;15.30;;;9.10;99.90;;;;;;5000676;28;91318;-76
2022/12/23 08:31:22;;;;;;;40.95;14.23;;;9.20;99.90;;;;;;5018057;28;88813;-76
2022/12/23 08:33:52;;;;;;;42.67;15.48;;;9.20;99.90;;;;;;5018900;28;88855;-76
2022/12/23 08:36:26;;;;;;;38.15;14.23;;;9.20;99.90;;;;;;5000522;28;91993;-76
2022/12/23 08:38:54;;;;;;;35.70;13.77;;;9.30;99.90;;;;;;5019100;28;88854;-76
2022/12/23 08:41:25;;;;;;;30.00;14.35;;;9.30;99.90;;;;;;5018815;28;88759;-76
2022/12/23 08:43:52;;;;;;;30.83;13.07;;;9.30;99.90;;;;;;5017108;28;89797;-76
2022/12/23 08:46:20;;;;;;;25.00;11.50;;;9.30;99.90;;;;;;5017604;28;88444;-76
2022/12/23 08:48:47;;;;;;;29.70;12.40;;;9.40;99.90;;;;;;5007669;28;88804;-76
2022/12/23 08:51:17;;;;;;;22.42;11.23;;;9.40;99.90;;;;;;5020578;28;93791;-76
2022/12/23 08:53:45;;;;;;;25.05;11.57;;;9.40;99.90;;;;;;5020783;28;91616;-76
2022/12/23 08:56:19;;;;;;;27.90;12.27;;;9.40;99.90;;;;;;5020879;28;89458;-76
2022/12/23 08:58:47;;;;;;;39.50;12.90;;;9.50;99.90;;;;;;5037037;28;89023;-76
2022/12/23 09:01:16;;;;;;;32.15;12.10;;;9.40;99.90;;;;;;5020640;28;91136;-76
2022/12/23 09:03:44;;;;;;;29.98;11.30;;;9.40;99.90;;;;;;5037274;28;89017;-76
2022/12/23 09:06:20;;;;;;;27.00;11.90;;;9.50;99.90;;;;;;5003845;28;90239;-76
2022/12/23 09:08:54;;;;;;;28.20;12.07;;;9.50;99.90;;;;;;5021698;28;88805;-76
2022/12/23 09:11:24;;;;;;;28.17;12.30;;;9.50;99.90;;;;;;5038755;28;88577;-76
2022/12/23 09:13:51;;;;;;;29.00;13.88;;;9.60;99.90;;;;;;5020484;28;90106;-76
2022/12/23 09:16:19;;;;;;;38.50;15.15;;;9.60;99.90;;;;;;5019883;28;91084;-76
2022/12/23 09:18:46;;;;;;;34.40;13.55;;;9.70;99.90;;;;;;5038341;28;88925;-76
2022/12/23 09:21:16;;;;;;;40.97;13.30;;;9.70;99.90;;;;;;5038079;28;88670;-75
2022/12/23 09:23:43;;;;;;;22.73;11.80;;;9.80;99.90;;;;;;5019950;28;91586;-75
2022/12/23 09:26:23;;;;;;;25.58;11.45;;;9.80;99.90;;;;;;5003205;28;91959;-75
2022/12/23 09:28:51;;;;;;;27.45;13.38;;;9.90;99.90;;;;;;5019719;28;91853;-75
2022/12/23 09:31:19;;;;;;;32.05;14.68;;;9.90;99.90;;;;;;5037968;28;88407;-75
2022/12/23 09:33:48;;;;;;;31.90;13.50;;;10.00;99.90;;;;;;5037615;28;88849;-75
2022/12/23 09:36:15;;;;;;;28.08;14.88;;;10.10;99.90;;;;;;5003062;28;91126;-76
2022/12/23 09:38:43;;;;;;;24.65;13.50;;;10.20;99.90;;;;;;4986886;28;91279;-75
2022/12/23 09:42:00;;;;;;;23.30;13.77;;;10.30;99.90;;;;;;5038226;28;88930;-76
2022/12/23 09:44:37;;;;;;;19.30;11.60;;;10.40;99.90;;;;;;5032414;28;88769;-76
2022/12/23 09:47:10;;;;;;;17.63;9.95;;;10.40;99.90;;;;;;5037911;28;89488;-76
2022/12/23 09:49:43;;;;;;;19.52;9.93;;;10.50;99.90;;;;;;5009978;28;91713;-76
2022/12/23 09:52:15;;;;;;;19.25;10.43;;;10.50;99.90;;;;;;5018885;28;87423;-76
2022/12/23 09:54:47;;;;;;;15.57;9.32;;;10.60;99.90;;;;;;5000190;28;88652;-76
2022/12/23 09:57:21;;;;;;;22.05;13.20;;;10.60;99.90;;;;;;5018619;28;88534;-76
2022/12/23 10:00:12;;;;;;;18.75;10.27;;;10.70;99.90;;;;;;5015961;28;89505;-76
2022/12/23 10:03:00;;;;;;;21.85;11.35;;;10.80;99.90;;;;;;5016715;28;88434;-76
2022/12/23 10:05:34;;;;;;;21.33;11.45;;;10.80;99.90;;;;;;5017485;28;88850;-76
2022/12/23 10:08:13;;;;;;;16.80;9.13;;;10.80;99.90;;;;;;5016556;28;88409;-76
2022/12/23 10:10:51;;;;;;;15.98;8.93;;;11.00;99.90;;;;;;5018612;28;89054;-76
2022/12/23 10:13:57;;;;;;;19.70;9.60;;;11.10;99.90;;;;;;5016398;28;90340;-76
2022/12/23 10:16:33;;;;;;;16.80;10.40;;;11.20;99.90;;;;;;4999727;28;88969;-76
2022/12/23 10:19:01;;;;;;;22.08;14.60;;;11.10;99.90;;;;;;5017989;28;88429;-76
2022/12/23 10:21:46;;;;;;;17.15;9.35;;;11.10;99.90;;;;;;4999060;28;89083;-76
2022/12/23 10:24:27;;;;;;;20.63;11.30;;;11.10;99.90;;;;;;5017209;28;88352;-76
2022/12/23 10:27:00;;;;;;;19.95;11.15;;;11.00;99.90;;;;;;4999641;28;89570;-76
2022/12/23 10:29:32;;;;;;;18.42;10.82;;;10.90;99.90;;;;;;5016116;28;89379;-76
2022/12/23 10:32:01;;;;;;;17.02;10.00;;;10.90;99.90;;;;;;4999030;28;90737;-76
2022/12/23 10:34:53;;;;;;;19.60;10.50;;;10.90;99.90;;;;;;4999224;28;88498;-76
2022/12/23 10:37:26;;;;;;;18.95;10.30;;;10.90;99.90;;;;;;4999148;28;88884;-76
2022/12/23 10:40:26;;;;;;;17.13;9.68;;;10.90;99.90;;;;;;4999475;28;89558;-76
2022/12/23 10:43:10;;;;;;;26.67;11.75;;;10.90;99.90;;;;;;5016262;28;88847;-76
2022/12/23 10:45:39;;;;;;;21.88;11.27;;;11.00;99.90;;;;;;5016064;28;88733;-76
2022/12/23 10:48:06;;;;;;;20.13;11.27;;;11.00;99.90;;;;;;4981996;28;91358;-76
2022/12/23 10:50:54;;;;;;;51.20;25.88;;;11.00;99.90;;;;;;4998145;28;92130;-76
2022/12/23 10:53:45;;;;;;;187.23;88.50;;;11.10;99.90;;;;;;5016574;28;89007;-76
2022/12/23 10:56:13;;;;;;;18.73;11.57;;;11.10;99.90;;;;;;4980621;28;101057;-76
2022/12/23 10:58:43;;;;;;;24.88;15.73;;;11.00;99.90;;;;;;4998257;28;91478;-76
2022/12/23 11:01:14;;;;;;;28.92;20.08;;;11.00;99.90;;;;;;5015501;28;89171;-76
2022/12/23 11:03:54;;;;;;;25.17;16.40;;;11.00;99.90;;;;;;5015826;28;88980;-76
2022/12/23 11:06:23;;;;;;;22.40;13.27;;;11.00;99.90;;;;;;5016792;28;88686;-76
2022/12/23 11:08:50;;;;;;;24.08;13.02;;;11.00;99.90;;;;;;5015315;28;91760;-76
2022/12/23 11:11:17;;;;;;;26.30;13.60;;;11.00;99.90;;;;;;5016883;28;89425;-75
2022/12/23 11:13:45;;;;;;;40.35;26.95;;;11.00;99.90;;;;;;5016933;28;89072;-75
2022/12/23 11:16:44;;;;;;;28.38;14.40;;;11.00;99.90;;;;;;5020342;28;88754;-74
2022/12/23 11:19:15;;;;;;;23.00;12.63;;;11.00;99.90;;;;;;5019738;28;89668;-75
2022/12/23 11:21:54;;;;;;;23.88;14.50;;;10.90;99.90;;;;;;5018627;28;91623;-75
2022/12/23 11:24:22;;;;;;;22.17;11.10;;;11.00;99.90;;;;;;5020197;28;89012;-74
2022/12/23 11:27:04;;;;;;;25.65;13.25;;;10.90;99.90;;;;;;5020124;28;88699;-75
2022/12/23 11:29:34;;;;;;;22.83;13.15;;;10.90;99.90;;;;;;5020271;28;88936;-74
2022/12/23 11:32:12;;;;;;;27.17;13.57;;;10.90;99.90;;;;;;5019805;28;90905;-75
2022/12/23 11:34:44;;;;;;;22.10;11.48;;;10.90;99.90;;;;;;5018790;28;89021;-75
2022/12/23 11:37:41;;;;;;;23.33;12.00;;;10.90;99.90;;;;;;5020542;28;88602;-74
2022/12/23 11:40:22;;;;;;;24.20;11.02;;;11.00;99.90;;;;;;4989413;28;91151;-75
2022/12/23 11:42:54;;;;;;;23.83;17.58;;;10.90;99.90;;;;;;5019973;28;89413;-75
2022/12/23 11:45:25;;;;;;;20.20;12.00;;;10.90;99.90;;;;;;5019625;28;89140;-74
2022/12/23 11:47:52;;;;;;;22.60;11.90;;;10.90;99.90;;;;;;5019865;28;88469;-75
2022/12/23 11:50:28;;;;;;;24.77;12.13;;;10.90;99.90;;;;;;5019777;28;89181;-75
2022/12/23 11:53:09;;;;;;;28.27;13.57;;;10.90;99.90;;;;;;5018282;28;89401;-75
2022/12/23 11:55:44;;;;;;;26.38;12.70;;;10.90;99.90;;;;;;5018538;28;89588;-75
2022/12/23 11:58:18;;;;;;;25.52;12.70;;;10.90;99.90;;;;;;5016993;28;88568;-75
2022/12/23 12:00:56;;;;;;;27.30;12.80;;;10.90;99.90;;;;;;5019960;28;88866;-75
2022/12/23 12:03:29;;;;;;;28.90;13.05;;;10.90;99.90;;;;;;5001382;28;92124;-75
2022/12/23 12:06:06;;;;;;;33.03;14.20;;;10.90;99.90;;;;;;5017800;28;91655;-75
2022/12/23 12:08:37;;;;;;;30.70;14.18;;;10.90;99.90;;;;;;5019614;28;88443;-75
2022/12/23 12:11:17;;;;;;;31.08;14.40;;;10.90;99.90;;;;;;5019511;28;89601;-75
2022/12/23 12:13:49;;;;;;;29.48;14.80;;;10.90;99.90;;;;;;5019407;28;89451;-75
2022/12/23 12:16:22;;;;;;;31.30;14.65;;;10.80;99.90;;;;;;5017879;28;91853;-75
2022/12/23 12:18:51;;;;;;;31.65;15.00;;;10.80;99.90;;;;;;5019599;28;88977;-75
2022/12/23 12:21:29;;;;;;;22.63;12.13;;;10.80;99.90;;;;;;5019712;28;88607;-75
2022/12/23 12:24:04;;;;;;;24.85;12.85;;;10.80;99.90;;;;;;5036663;28;92407;-75
2022/12/23 12:26:49;;;;;;;25.98;12.82;;;10.70;99.90;;;;;;5038588;28;88909;-75
2022/12/23 12:29:31;;;;;;;26.15;13.02;;;10.70;99.90;;;;;;5039810;28;88740;-75
2022/12/23 12:32:00;;;;;;;25.40;12.30;;;10.80;99.90;;;;;;5031952;28;88934;-75
2022/12/23 12:34:37;;;;;;;30.40;13.65;;;10.70;99.90;;;;;;5020847;28;91748;-75
2022/12/23 12:37:09;;;;;;;21.35;11.70;;;10.80;99.90;;;;;;5039307;28;88787;-75
2022/12/23 12:39:52;;;;;;;24.55;12.18;;;10.80;99.90;;;;;;5020758;28;90834;-75
2022/12/23 12:42:24;;;;;;;22.33;11.15;;;10.70;99.90;;;;;;5039533;28;88832;-75
2022/12/23 12:45:04;;;;;;;20.75;10.85;;;10.70;99.90;;;;;;5037045;28;90805;-75
2022/12/23 12:47:37;;;;;;;20.95;10.82;;;10.60;99.90;;;;;;5020575;28;91793;-75
2022/12/23 12:50:31;;;;;;;26.35;12.68;;;10.60;99.90;;;;;;5024235;28;88738;-75
2022/12/23 12:53:09;;;;;;;20.42;11.23;;;10.50;99.90;;;;;;5021307;28;88705;-75
2022/12/23 12:55:42;;;;;;;24.95;12.85;;;10.50;99.90;;;;;;5020947;28;92014;-75
2022/12/23 12:58:20;;;;;;;35.43;24.20;;;10.50;99.90;;;;;;5020571;28;91728;-75
2022/12/23 13:01:04;;;;;;;22.25;11.70;;;10.50;99.90;;;;;;5037121;28;91256;-75
2022/12/23 13:04:12;;;;;;;28.77;12.55;;;10.50;99.90;;;;;;5020683;28;89547;-75
2022/12/23 13:06:51;;;;;;;26.42;12.75;;;10.50;99.90;;;;;;5015472;28;91995;-75
2022/12/23 13:09:41;;;;;;;25.45;12.55;;;10.50;99.90;;;;;;5038873;28;89422;-75
2022/12/23 13:12:51;;;;;;;25.27;12.70;;;10.40;99.90;;;;;;5037734;28;88764;-75
2022/12/23 13:15:31;;;;;;;28.48;13.95;;;10.40;99.90;;;;;;5020515;28;91543;-75
2022/12/23 13:18:19;;;;;;;28.38;13.40;;;10.40;99.90;;;;;;5037639;28;89520;-75
2022/12/23 13:21:11;;;;;;;27.35;13.57;;;10.40;99.90;;;;;;5038373;28;89088;-75
2022/12/23 13:24:04;;;;;;;30.70;14.15;;;10.30;99.90;;;;;;5038883;28;88475;-75